sensor_id;sensor_type;location;lat;lon;timestamp;pressure;altitude;pressure_sealevel;temperature;humidity
13050;BME280;6591;51.446;5.404;2023-05-18T00:00:31;102469.13;;;13.99;38.80
13050;BME280;6591;51.446;5.404;2023-05-18T00:03:00;102458.63;;;13.93;38.96
13050;BME280;6591;51.446;5.404;2023-05-18T00:05:28;102452.50;;;13.91;38.97
13050;BME280;6591;51.446;5.404;2023-05-18T00:08:00;102457.03;;;13.87;38.87
13050;BME280;6591;51.446;5.404;2023-05-18T00:10:27;102450.94;;;13.84;38.92
13050;BME280;6591;51.446;5.404;2023-05-18T00:12:54;102449.25;;;13.81;38.96
13050;BME280;6591;51.446;5.404;2023-05-18T00:15:21;102451.13;;;13.78;39.38
13050;BME280;6591;51.446;5.404;2023-05-18T00:17:48;102460.13;;;13.75;39.65
13050;BME280;6591;51.446;5.404;2023-05-18T00:20:16;102463.72;;;13.74;39.10
13050;BME280;6591;51.446;5.404;2023-05-18T00:22:44;102455.00;;;13.69;39.45
13050;BME280;6591;51.446;5.404;2023-05-18T00:25:13;102461.28;;;13.67;39.21
13050;BME280;6591;51.446;5.404;2023-05-18T00:27:40;102459.66;;;13.63;39.42
13050;BME280;6591;51.446;5.404;2023-05-18T00:30:08;102457.13;;;13.58;39.30
13050;BME280;6591;51.446;5.404;2023-05-18T00:32:35;102454.59;;;13.53;39.52
13050;BME280;6591;51.446;5.404;2023-05-18T00:35:02;102457.31;;;13.52;39.48
13050;BME280;6591;51.446;5.404;2023-05-18T00:37:29;102461.00;;;13.48;39.70
13050;BME280;6591;51.446;5.404;2023-05-18T00:39:56;102465.59;;;13.44;39.87
13050;BME280;6591;51.446;5.404;2023-05-18T00:42:23;102467.41;;;13.42;39.75
13050;BME280;6591;51.446;5.404;2023-05-18T00:44:50;102475.53;;;13.39;39.54
13050;BME280;6591;51.446;5.404;2023-05-18T00:47:18;102471.19;;;13.35;39.58
13050;BME280;6591;51.446;5.404;2023-05-18T00:49:47;102471.25;;;13.34;39.42
13050;BME280;6591;51.446;5.404;2023-05-18T00:52:15;102466.97;;;13.28;40.14
13050;BME280;6591;51.446;5.404;2023-05-18T00:54:42;102475.03;;;13.25;39.82
13050;BME280;6591;51.446;5.404;2023-05-18T00:57:10;102476.06;;;13.21;39.67
13050;BME280;6591;51.446;5.404;2023-05-18T00:59:37;102468.16;;;13.18;39.80
13050;BME280;6591;51.446;5.404;2023-05-18T01:02:05;102470.91;;;13.15;39.84
13050;BME280;6591;51.446;5.404;2023-05-18T01:04:32;102479.00;;;13.12;39.91
13050;BME280;6591;51.446;5.404;2023-05-18T01:07:01;102473.72;;;13.09;39.94
13050;BME280;6591;51.446;5.404;2023-05-18T01:09:33;102475.59;;;13.05;39.85
13050;BME280;6591;51.446;5.404;2023-05-18T01:12:24;102474.97;;;12.97;40.35
13050;BME280;6591;51.446;5.404;2023-05-18T01:15:09;102474.16;;;12.94;40.25
13050;BME280;6591;51.446;5.404;2023-05-18T01:17:55;102479.59;;;12.91;40.32
13050;BME280;6591;51.446;5.404;2023-05-18T01:20:39;102484.09;;;12.89;40.07
13050;BME280;6591;51.446;5.404;2023-05-18T01:23:42;102476.25;;;12.83;40.73
13050;BME280;6591;51.446;5.404;2023-05-18T01:28:44;102480.84;;;12.78;40.43
13050;BME280;6591;51.446;5.404;2023-05-18T01:31:13;102479.16;;;12.75;40.29
13050;BME280;6591;51.446;5.404;2023-05-18T01:33:45;102482.75;;;12.72;40.85
13050;BME280;6591;51.446;5.404;2023-05-18T01:36:12;102474.84;;;12.71;40.52
13050;BME280;6591;51.446;5.404;2023-05-18T01:38:40;102479.31;;;12.69;40.78
13050;BME280;6591;51.446;5.404;2023-05-18T01:41:20;102478.53;;;12.65;40.70
13050;BME280;6591;51.446;5.404;2023-05-18T01:44:18;102477.81;;;12.59;40.75
13050;BME280;6591;51.446;5.404;2023-05-18T01:47:12;102476.09;;;12.56;40.61
13050;BME280;6591;51.446;5.404;2023-05-18T01:50:05;102481.53;;;12.53;41.19
13050;BME280;6591;51.446;5.404;2023-05-18T01:53:05;102478.09;;;12.50;40.73
13050;BME280;6591;51.446;5.404;2023-05-18T01:55:35;102469.13;;;12.52;40.89
13050;BME280;6591;51.446;5.404;2023-05-18T01:58:06;102470.97;;;12.50;40.64
13050;BME280;6591;51.446;5.404;2023-05-18T02:00:35;102472.75;;;12.50;40.56
13050;BME280;6591;51.446;5.404;2023-05-18T02:03:04;102477.25;;;12.48;40.65
13050;BME280;6591;51.446;5.404;2023-05-18T02:05:32;102472.78;;;12.48;40.83
13050;BME280;6591;51.446;5.404;2023-05-18T02:07:59;102465.75;;;12.46;40.96
13050;BME280;6591;51.446;5.404;2023-05-18T02:10:26;102462.16;;;12.47;41.24
13050;BME280;6591;51.446;5.404;2023-05-18T02:12:53;102461.34;;;12.45;41.07
13050;BME280;6591;51.446;5.404;2023-05-18T02:15:20;102464.00;;;12.45;41.39
13050;BME280;6591;51.446;5.404;2023-05-18T02:17:48;102467.59;;;12.44;41.29
13050;BME280;6591;51.446;5.404;2023-05-18T02:20:15;102469.41;;;12.42;41.56
13050;BME280;6591;51.446;5.404;2023-05-18T02:22:45;102472.94;;;12.42;41.29
13050;BME280;6591;51.446;5.404;2023-05-18T02:25:12;102463.19;;;12.41;41.20
13050;BME280;6591;51.446;5.404;2023-05-18T02:27:39;102463.28;;;12.38;41.32
13050;BME280;6591;51.446;5.404;2023-05-18T02:30:07;102470.38;;;12.39;41.35
13050;BME280;6591;51.446;5.404;2023-05-18T02:32:35;102456.22;;;12.37;41.63
13050;BME280;6591;51.446;5.404;2023-05-18T02:35:06;102459.75;;;12.38;41.34
13050;BME280;6591;51.446;5.404;2023-05-18T02:37:34;102458.00;;;12.37;41.39
13050;BME280;6591;51.446;5.404;2023-05-18T02:40:10;102459.84;;;12.35;41.66
13050;BME280;6591;51.446;5.404;2023-05-18T02:42:39;102458.97;;;12.34;41.11
13050;BME280;6591;51.446;5.404;2023-05-18T02:45:07;102452.81;;;12.32;41.51
13050;BME280;6591;51.446;5.404;2023-05-18T02:47:35;102451.00;;;12.32;41.64
13050;BME280;6591;51.446;5.404;2023-05-18T02:50:02;102455.47;;;12.32;41.51
13050;BME280;6591;51.446;5.404;2023-05-18T02:52:31;102453.78;;;12.29;41.88
13050;BME280;6591;51.446;5.404;2023-05-18T02:55:00;102443.16;;;12.28;41.44
13050;BME280;6591;51.446;5.404;2023-05-18T02:57:44;102452.06;;;12.27;41.72
13050;BME280;6591;51.446;5.404;2023-05-18T03:00:16;102449.47;;;12.24;41.55
13050;BME280;6591;51.446;5.404;2023-05-18T03:02:44;102449.47;;;12.24;42.18
13050;BME280;6591;51.446;5.404;2023-05-18T03:05:15;102450.50;;;12.18;41.53
13050;BME280;6591;51.446;5.404;2023-05-18T03:07:50;102457.59;;;12.19;42.02
13050;BME280;6591;51.446;5.404;2023-05-18T03:10:21;102452.31;;;12.16;42.05
13050;BME280;6591;51.446;5.404;2023-05-18T03:12:49;102452.34;;;12.15;41.93
13050;BME280;6591;51.446;5.404;2023-05-18T03:15:16;102452.44;;;12.12;41.81
13050;BME280;6591;51.446;5.404;2023-05-18T03:17:44;102449.00;;;12.08;42.09
13050;BME280;6591;51.446;5.404;2023-05-18T03:20:12;102446.38;;;12.07;41.82
13050;BME280;6591;51.446;5.404;2023-05-18T03:22:41;102454.34;;;12.07;42.07
13050;BME280;6591;51.446;5.404;2023-05-18T03:25:08;102452.59;;;12.06;42.05
13050;BME280;6591;51.446;5.404;2023-05-18T03:27:36;102452.59;;;12.06;41.99
13050;BME280;6591;51.446;5.404;2023-05-18T03:30:05;102457.97;;;12.04;41.69
13050;BME280;6591;51.446;5.404;2023-05-18T03:32:32;102451.81;;;12.02;42.34
13050;BME280;6591;51.446;5.404;2023-05-18T03:35:00;102451.84;;;12.01;41.70
13050;BME280;6591;51.446;5.404;2023-05-18T03:37:28;102455.41;;;12.00;42.06
13050;BME280;6591;51.446;5.404;2023-05-18T03:40:07;102448.44;;;11.96;42.51
13050;BME280;6591;51.446;5.404;2023-05-18T03:42:38;102449.28;;;11.98;42.50
13050;BME280;6591;51.446;5.404;2023-05-18T03:45:09;102450.22;;;11.95;42.30
13050;BME280;6591;51.446;5.404;2023-05-18T03:47:37;102444.88;;;11.95;42.34
13050;BME280;6591;51.446;5.404;2023-05-18T03:50:06;102456.44;;;11.94;42.17
13050;BME280;6591;51.446;5.404;2023-05-18T03:52:34;102460.88;;;11.94;42.46
13050;BME280;6591;51.446;5.404;2023-05-18T03:55:03;102461.84;;;11.91;42.29
13050;BME280;6591;51.446;5.404;2023-05-18T03:57:31;102453.03;;;11.89;42.11
13050;BME280;6591;51.446;5.404;2023-05-18T04:00:00;102454.88;;;11.87;42.19
13050;BME280;6591;51.446;5.404;2023-05-18T04:02:42;102458.34;;;11.89;42.66
13050;BME280;6591;51.446;5.404;2023-05-18T04:05:13;102459.31;;;11.86;42.34
13050;BME280;6591;51.446;5.404;2023-05-18T04:07:41;102463.75;;;11.86;42.51
13050;BME280;6591;51.446;5.404;2023-05-18T04:10:13;102470.84;;;11.87;42.73
13050;BME280;6591;51.446;5.404;2023-05-18T04:12:43;102461.09;;;11.86;43.09
13050;BME280;6591;51.446;5.404;2023-05-18T04:15:10;102461.91;;;11.88;42.81
13050;BME280;6591;51.446;5.404;2023-05-18T04:17:41;102468.09;;;11.90;42.97
13050;BME280;6591;51.446;5.404;2023-05-18T04:20:12;102469.81;;;11.93;42.74
13050;BME280;6591;51.446;5.404;2023-05-18T04:22:45;102468.88;;;11.94;43.02
13050;BME280;6591;51.446;5.404;2023-05-18T04:25:14;102472.34;;;11.97;42.99
13050;BME280;6591;51.446;5.404;2023-05-18T04:27:42;102475.78;;;12.02;43.22
13050;BME280;6591;51.446;5.404;2023-05-18T04:30:12;102478.38;;;12.04;43.01
13050;BME280;6591;51.446;5.404;2023-05-18T04:32:41;102472.09;;;12.08;43.34
13050;BME280;6591;51.446;5.404;2023-05-18T04:35:10;102476.41;;;12.12;42.93
13050;BME280;6591;51.446;5.404;2023-05-18T04:37:38;102485.19;;;12.15;43.01
13050;BME280;6591;51.446;5.404;2023-05-18T04:40:15;102483.34;;;12.19;43.08
13050;BME280;6591;51.446;5.404;2023-05-18T04:42:45;102481.44;;;12.24;43.22
13050;BME280;6591;51.446;5.404;2023-05-18T04:45:19;102482.22;;;12.27;43.18
13050;BME280;6591;51.446;5.404;2023-05-18T04:47:49;102478.53;;;12.33;43.12
13050;BME280;6591;51.446;5.404;2023-05-18T04:50:21;102489.06;;;12.38;43.58
13050;BME280;6591;51.446;5.404;2023-05-18T04:52:52;102485.38;;;12.42;42.98
13050;BME280;6591;51.446;5.404;2023-05-18T04:55:22;102493.22;;;12.48;43.27
13050;BME280;6591;51.446;5.404;2023-05-18T04:57:56;102490.44;;;12.52;43.60
13050;BME280;6591;51.446;5.404;2023-05-18T05:00:26;102492.94;;;12.58;43.06
13050;BME280;6591;51.446;5.404;2023-05-18T05:02:56;102496.34;;;12.63;43.31
13050;BME280;6591;51.446;5.404;2023-05-18T05:05:24;102493.53;;;12.69;43.51
13050;BME280;6591;51.446;5.404;2023-05-18T05:07:54;102487.13;;;12.77;43.86
13050;BME280;6591;51.446;5.404;2023-05-18T05:10:22;102500.25;;;12.83;43.47
13050;BME280;6591;51.446;5.404;2023-05-18T05:12:53;102498.28;;;12.89;43.51
13050;BME280;6591;51.446;5.404;2023-05-18T05:15:20;102498.13;;;12.95;43.34
13050;BME280;6591;51.446;5.404;2023-05-18T05:17:49;102494.28;;;13.05;43.86
13050;BME280;6591;51.446;5.404;2023-05-18T05:20:17;102495.81;;;13.14;43.92
13050;BME280;6591;51.446;5.404;2023-05-18T05:22:44;102499.13;;;13.24;43.39
13050;BME280;6591;51.446;5.404;2023-05-18T05:25:14;102495.28;;;13.32;43.58
13050;BME280;6591;51.446;5.404;2023-05-18T05:27:42;102486.13;;;13.41;43.25
13050;BME280;6591;51.446;5.404;2023-05-18T05:30:09;102494.63;;;13.53;43.43
13050;BME280;6591;51.446;5.404;2023-05-18T05:32:38;102489.00;;;13.63;43.63
13050;BME280;6591;51.446;5.404;2023-05-18T05:35:06;102501.13;;;13.73;43.45
13050;BME280;6591;51.446;5.404;2023-05-18T05:37:35;102487.50;;;13.82;43.09
13050;BME280;6591;51.446;5.404;2023-05-18T05:40:03;102492.44;;;13.94;43.21
13050;BME280;6591;51.446;5.404;2023-05-18T05:42:36;102488.66;;;14.01;42.90
13050;BME280;6591;51.446;5.404;2023-05-18T05:45:04;102490.19;;;14.08;42.92
13050;BME280;6591;51.446;5.404;2023-05-18T05:47:36;102489.09;;;14.14;43.11
13050;BME280;6591;51.446;5.404;2023-05-18T05:50:05;102488.84;;;14.21;42.84
13050;BME280;6591;51.446;5.404;2023-05-18T05:52:34;102490.34;;;14.30;42.72
13050;BME280;6591;51.446;5.404;2023-05-18T05:55:02;102489.13;;;14.40;43.00
13050;BME280;6591;51.446;5.404;2023-05-18T05:57:31;102487.13;;;14.47;42.84
13050;BME280;6591;51.446;5.404;2023-05-18T05:59:58;102490.16;;;14.61;42.62
13050;BME280;6591;51.446;5.404;2023-05-18T06:02:26;102493.41;;;14.70;42.60
13050;BME280;6591;51.446;5.404;2023-05-18T06:04:54;102496.63;;;14.80;42.46
13050;BME280;6591;51.446;5.404;2023-05-18T06:07:21;102496.31;;;14.88;42.29
13050;BME280;6591;51.446;5.404;2023-05-18T06:09:49;102496.75;;;15.00;42.47
13050;BME280;6591;51.446;5.404;2023-05-18T06:12:17;102492.75;;;15.12;42.36
13050;BME280;6591;51.446;5.404;2023-05-18T06:14:44;102487.78;;;15.24;42.17
13050;BME280;6591;51.446;5.404;2023-05-18T06:17:11;102498.75;;;15.42;42.07
13050;BME280;6591;51.446;5.404;2023-05-18T06:19:38;102486.78;;;15.52;41.92
13050;BME280;6591;51.446;5.404;2023-05-18T06:22:05;102493.38;;;15.65;41.72
13050;BME280;6591;51.446;5.404;2023-05-18T06:24:41;102492.88;;;15.77;41.66
13050;BME280;6591;51.446;5.404;2023-05-18T06:27:27;102494.16;;;15.90;41.71
13050;BME280;6591;51.446;5.404;2023-05-18T06:30:09;102489.09;;;16.04;41.24
13050;BME280;6591;51.446;5.404;2023-05-18T06:33:12;102492.97;;;16.18;41.27
13050;BME280;6591;51.446;5.404;2023-05-18T06:35:40;102499.69;;;16.28;41.23
13050;BME280;6591;51.446;5.404;2023-05-18T06:38:07;102493.97;;;16.37;40.83
13050;BME280;6591;51.446;5.404;2023-05-18T06:40:35;102498.78;;;16.49;40.88
13050;BME280;6591;51.446;5.404;2023-05-18T06:43:02;102487.63;;;16.60;40.81
13050;BME280;6591;51.446;5.404;2023-05-18T06:45:37;102503.03;;;16.75;40.55
13050;BME280;6591;51.446;5.404;2023-05-18T06:48:17;102506.19;;;16.84;40.45
13050;BME280;6591;51.446;5.404;2023-05-18T06:50:44;102506.50;;;16.97;40.58
13050;BME280;6591;51.446;5.404;2023-05-18T06:53:11;102501.59;;;17.07;40.08
13050;BME280;6591;51.446;5.404;2023-05-18T06:55:39;102500.97;;;17.20;39.95
13050;BME280;6591;51.446;5.404;2023-05-18T06:58:06;102496.84;;;17.32;39.91
13050;BME280;6591;51.446;5.404;2023-05-18T07:00:33;102500.53;;;17.48;39.82
13050;BME280;6591;51.446;5.404;2023-05-18T07:03:01;102496.44;;;17.60;39.57
13050;BME280;6591;51.446;5.404;2023-05-18T07:05:29;102499.00;;;17.80;39.42
13050;BME280;6591;51.446;5.404;2023-05-18T07:07:56;102503.56;;;17.97;39.50
13050;BME280;6591;51.446;5.404;2023-05-18T07:10:23;102504.63;;;18.11;39.34
13050;BME280;6591;51.446;5.404;2023-05-18T07:12:51;102513.59;;;18.29;39.11
13050;BME280;6591;51.446;5.404;2023-05-18T07:15:18;102512.81;;;18.44;39.05
13050;BME280;6591;51.446;5.404;2023-05-18T07:17:45;102512.03;;;18.59;38.79
13050;BME280;6591;51.446;5.404;2023-05-18T07:20:12;102513.16;;;18.73;38.96
13050;BME280;6591;51.446;5.404;2023-05-18T07:22:39;102506.09;;;18.87;38.30
13050;BME280;6591;51.446;5.404;2023-05-18T07:25:06;102515.34;;;18.99;38.15
13050;BME280;6591;51.446;5.404;2023-05-18T07:27:33;102513.97;;;19.08;37.86
13050;BME280;6591;51.446;5.404;2023-05-18T07:30:00;102515.06;;;19.21;37.93
13050;BME280;6591;51.446;5.404;2023-05-18T07:32:29;102515.91;;;19.37;37.73
13050;BME280;6591;51.446;5.404;2023-05-18T07:34:57;102517.56;;;19.57;37.66
13050;BME280;6591;51.446;5.404;2023-05-18T07:37:24;102522.78;;;19.75;37.44
13050;BME280;6591;51.446;5.404;2023-05-18T07:39:51;102517.63;;;19.86;36.90
13050;BME280;6591;51.446;5.404;2023-05-18T07:42:18;102527.13;;;19.94;37.33
13050;BME280;6591;51.446;5.404;2023-05-18T07:44:45;102526.50;;;20.04;36.72
13050;BME280;6591;51.446;5.404;2023-05-18T07:47:13;102526.13;;;20.10;36.31
13050;BME280;6591;51.446;5.404;2023-05-18T07:49:40;102527.53;;;20.17;36.56
13050;BME280;6591;51.446;5.404;2023-05-18T07:52:08;102526.72;;;20.31;36.34
13050;BME280;6591;51.446;5.404;2023-05-18T07:54:35;102534.78;;;20.47;36.40
13050;BME280;6591;51.446;5.404;2023-05-18T07:57:03;102529.44;;;20.61;36.02
13050;BME280;6591;51.446;5.404;2023-05-18T07:59:30;102527.56;;;20.77;36.12
13050;BME280;6591;51.446;5.404;2023-05-18T08:01:57;102527.50;;;20.93;35.55
13050;BME280;6591;51.446;5.404;2023-05-18T08:04:25;102526.63;;;21.06;35.62
13050;BME280;6591;51.446;5.404;2023-05-18T08:06:53;102535.06;;;21.16;35.45
13050;BME280;6591;51.446;5.404;2023-05-18T08:09:21;102531.09;;;21.22;35.23
13050;BME280;6591;51.446;5.404;2023-05-18T08:11:50;102533.78;;;21.22;34.64
13050;BME280;6591;51.446;5.404;2023-05-18T08:14:17;102536.50;;;21.22;34.82
13050;BME280;6591;51.446;5.404;2023-05-18T08:16:44;102537.38;;;21.22;34.54
13050;BME280;6591;51.446;5.404;2023-05-18T08:19:12;102532.63;;;21.26;34.95
13050;BME280;6591;51.446;5.404;2023-05-18T08:21:39;102527.06;;;21.29;34.26
13050;BME280;6591;51.446;5.404;2023-05-18T08:24:07;102532.81;;;21.37;34.34
13050;BME280;6591;51.446;5.404;2023-05-18T08:26:35;102529.25;;;21.36;34.15
13050;BME280;6591;51.446;5.404;2023-05-18T08:29:02;102532.66;;;21.40;34.17
13050;BME280;6591;51.446;5.404;2023-05-18T08:31:37;102522.81;;;21.39;33.98
13050;BME280;6591;51.446;5.404;2023-05-18T08:34:05;102523.84;;;21.36;34.21
13050;BME280;6591;51.446;5.404;2023-05-18T08:36:36;102524.72;;;21.37;33.44
13050;BME280;6591;51.446;5.404;2023-05-18T08:39:03;102524.63;;;21.38;33.91
13050;BME280;6591;51.446;5.404;2023-05-18T08:41:39;102520.00;;;21.40;33.56
13050;BME280;6591;51.446;5.404;2023-05-18T08:44:25;102514.00;;;21.49;33.93
13050;BME280;6591;51.446;5.404;2023-05-18T08:46:55;102515.63;;;21.66;33.78
13050;BME280;6591;51.446;5.404;2023-05-18T08:49:25;102506.59;;;21.80;33.79
13050;BME280;6591;51.446;5.404;2023-05-18T08:52:02;102500.88;;;21.84;32.49
13050;BME280;6591;51.446;5.404;2023-05-18T08:54:31;102506.94;;;21.88;32.61
13050;BME280;6591;51.446;5.404;2023-05-18T08:56:59;102502.97;;;21.93;32.90
13050;BME280;6591;51.446;5.404;2023-05-18T08:59:32;102500.66;;;22.02;32.88
13050;BME280;6591;51.446;5.404;2023-05-18T09:01:59;102497.81;;;22.17;33.04
13050;BME280;6591;51.446;5.404;2023-05-18T09:04:27;102494.69;;;22.36;32.77
13050;BME280;6591;51.446;5.404;2023-05-18T09:06:54;102500.78;;;22.52;32.10
13050;BME280;6591;51.446;5.404;2023-05-18T09:09:24;102494.31;;;22.67;31.47
13050;BME280;6591;51.446;5.404;2023-05-18T09:11:51;102498.69;;;22.83;31.91
13050;BME280;6591;51.446;5.404;2023-05-18T09:14:19;102491.88;;;23.02;31.62
13050;BME280;6591;51.446;5.404;2023-05-18T09:16:52;102480.91;;;23.16;31.10
13050;BME280;6591;51.446;5.404;2023-05-18T09:19:19;102489.66;;;23.33;31.48
13050;BME280;6591;51.446;5.404;2023-05-18T09:21:46;102481.41;;;23.47;30.61
13050;BME280;6591;51.446;5.404;2023-05-18T09:24:13;102482.38;;;23.58;30.82
13050;BME280;6591;51.446;5.404;2023-05-18T09:26:41;102487.53;;;23.74;30.77
13050;BME280;6591;51.446;5.404;2023-05-18T09:29:21;102483.84;;;23.75;30.19
13050;BME280;6591;51.446;5.404;2023-05-18T09:31:50;102487.06;;;23.80;30.40
13050;BME280;6591;51.446;5.404;2023-05-18T09:34:17;102487.81;;;23.82;29.74
13050;BME280;6591;51.446;5.404;2023-05-18T09:36:51;102488.16;;;23.78;29.70
13050;BME280;6591;51.446;5.404;2023-05-18T09:39:23;102490.41;;;23.84;29.77
13050;BME280;6591;51.446;5.404;2023-05-18T09:41:57;102486.84;;;23.83;29.44
13050;BME280;6591;51.446;5.404;2023-05-18T09:44:35;102490.38;;;23.96;29.60
13050;BME280;6591;51.446;5.404;2023-05-18T09:47:07;102491.25;;;24.21;29.71
13050;BME280;6591;51.446;5.404;2023-05-18T09:49:40;102493.69;;;24.47;29.71
13050;BME280;6591;51.446;5.404;2023-05-18T09:52:07;102488.81;;;24.75;29.37
13050;BME280;6591;51.446;5.404;2023-05-18T09:54:38;102479.34;;;25.03;28.88
13050;BME280;6591;51.446;5.404;2023-05-18T09:57:05;102482.19;;;25.23;28.59
13050;BME280;6591;51.446;5.404;2023-05-18T09:59:37;102472.44;;;25.43;28.33
13050;BME280;6591;51.446;5.404;2023-05-18T10:02:05;102473.38;;;25.76;28.77
13050;BME280;6591;51.446;5.404;2023-05-18T10:04:40;102465.28;;;26.17;28.69
13050;BME280;6591;51.446;5.404;2023-05-18T10:07:16;102463.81;;;26.66;28.10
13050;BME280;6591;51.446;5.404;2023-05-18T10:09:44;102468.28;;;27.18;27.70
13050;BME280;6591;51.446;5.404;2023-05-18T10:12:19;102466.53;;;27.47;26.33
13050;BME280;6591;51.446;5.404;2023-05-18T10:14:48;102457.00;;;27.72;26.70
13050;BME280;6591;51.446;5.404;2023-05-18T10:17:15;102453.84;;;27.76;26.18
13050;BME280;6591;51.446;5.404;2023-05-18T10:19:44;102446.94;;;27.72;25.91
13050;BME280;6591;51.446;5.404;2023-05-18T10:22:16;102449.06;;;27.59;25.33
13050;BME280;6591;51.446;5.404;2023-05-18T10:24:50;102454.72;;;27.37;25.47
13050;BME280;6591;51.446;5.404;2023-05-18T10:27:25;102453.66;;;27.19;25.26
13050;BME280;6591;51.446;5.404;2023-05-18T10:29:57;102456.22;;;27.11;25.23
13050;BME280;6591;51.446;5.404;2023-05-18T10:32:28;102467.66;;;27.05;25.85
13050;BME280;6591;51.446;5.404;2023-05-18T10:34:56;102445.13;;;27.03;25.50
13050;BME280;6591;51.446;5.404;2023-05-18T10:37:24;102449.88;;;27.01;25.34
13050;BME280;6591;51.446;5.404;2023-05-18T10:39:59;102447.94;;;26.91;25.67
13050;BME280;6591;51.446;5.404;2023-05-18T10:42:29;102453.19;;;26.83;25.55
13050;BME280;6591;51.446;5.404;2023-05-18T10:44:57;102435.81;;;26.84;25.82
13050;BME280;6591;51.446;5.404;2023-05-18T10:47:29;102449.84;;;26.80;25.04
13050;BME280;6591;51.446;5.404;2023-05-18T10:50:00;102452.72;;;26.78;25.52
13050;BME280;6591;51.446;5.404;2023-05-18T10:52:31;102441.81;;;26.78;24.88
13050;BME280;6591;51.446;5.404;2023-05-18T10:54:59;102442.06;;;26.75;25.23
13050;BME280;6591;51.446;5.404;2023-05-18T10:57:39;102438.63;;;26.73;24.84
13050;BME280;6591;51.446;5.404;2023-05-18T11:00:08;102437.63;;;26.95;25.68
13050;BME280;6591;51.446;5.404;2023-05-18T11:02:39;102446.00;;;27.13;25.20
13050;BME280;6591;51.446;5.404;2023-05-18T11:05:10;102438.59;;;27.24;25.00
13050;BME280;6591;51.446;5.404;2023-05-18T11:07:37;102443.38;;;27.32;24.82
13050;BME280;6591;51.446;5.404;2023-05-18T11:10:10;102432.16;;;27.35;24.33
13050;BME280;6591;51.446;5.404;2023-05-18T11:12:39;102444.81;;;27.36;24.48
13050;BME280;6591;51.446;5.404;2023-05-18T11:15:07;102426.84;;;27.33;24.57
13050;BME280;6591;51.446;5.404;2023-05-18T11:17:34;102434.16;;;27.33;24.56
13050;BME280;6591;51.446;5.404;2023-05-18T11:27:54;102435.88;;;27.34;24.29
13050;BME280;6591;51.446;5.404;2023-05-18T11:33:15;102427.44;;;27.37;24.10
13050;BME280;6591;51.446;5.404;2023-05-18T11:36:00;102423.09;;;27.25;23.88
13050;BME280;6591;51.446;5.404;2023-05-18T11:38:53;102433.94;;;27.06;23.76
13050;BME280;6591;51.446;5.404;2023-05-18T11:44:15;102417.28;;;26.78;23.72
13050;BME280;6591;51.446;5.404;2023-05-18T11:49:32;102406.00;;;26.62;24.39
13050;BME280;6591;51.446;5.404;2023-05-18T11:54:52;102409.78;;;26.50;24.03
13050;BME280;6591;51.446;5.404;2023-05-18T12:00:04;102396.09;;;26.61;24.48
13050;BME280;6591;51.446;5.404;2023-05-18T12:02:43;102395.81;;;26.64;24.42
13050;BME280;6591;51.446;5.404;2023-05-18T12:05:12;102407.03;;;26.71;24.05
13050;BME280;6591;51.446;5.404;2023-05-18T12:07:41;102400.31;;;26.75;24.33
13050;BME280;6591;51.446;5.404;2023-05-18T12:10:13;102401.56;;;26.91;24.24
13050;BME280;6591;51.446;5.404;2023-05-18T12:12:56;102396.34;;;27.19;23.81
13050;BME280;6591;51.446;5.404;2023-05-18T12:15:25;102399.91;;;27.50;24.25
13050;BME280;6591;51.446;5.404;2023-05-18T12:17:57;102392.03;;;27.75;23.62
13050;BME280;6591;51.446;5.404;2023-05-18T12:20:24;102391.44;;;27.91;23.68
13050;BME280;6591;51.446;5.404;2023-05-18T12:22:54;102392.72;;;28.06;23.46
13050;BME280;6591;51.446;5.404;2023-05-18T12:25:25;102389.00;;;28.17;22.95
13050;BME280;6591;51.446;5.404;2023-05-18T12:27:54;102392.75;;;28.16;22.68
13050;BME280;6591;51.446;5.404;2023-05-18T12:30:24;102394.47;;;28.17;22.94
13050;BME280;6591;51.446;5.404;2023-05-18T12:33:00;102392.00;;;28.33;23.31
13050;BME280;6591;51.446;5.404;2023-05-18T12:35:31;102386.03;;;28.67;23.69
13050;BME280;6591;51.446;5.404;2023-05-18T12:37:59;102385.72;;;29.06;23.51
13050;BME280;6591;51.446;5.404;2023-05-18T12:40:35;102393.09;;;29.33;22.78
13050;BME280;6591;51.446;5.404;2023-05-18T12:43:14;102391.47;;;29.40;22.42
13050;BME280;6591;51.446;5.404;2023-05-18T12:45:43;102394.91;;;29.42;22.24
13050;BME280;6591;51.446;5.404;2023-05-18T12:48:12;102398.91;;;29.48;22.57
13050;BME280;6591;51.446;5.404;2023-05-18T12:50:48;102389.78;;;29.57;21.89
13050;BME280;6591;51.446;5.404;2023-05-18T12:53:19;102392.91;;;29.80;22.05
13050;BME280;6591;51.446;5.404;2023-05-18T12:55:58;102379.28;;;29.88;22.07
13050;BME280;6591;51.446;5.404;2023-05-18T12:58:25;102376.78;;;29.95;21.49
13050;BME280;6591;51.446;5.404;2023-05-18T13:00:52;102382.44;;;29.93;21.54
13050;BME280;6591;51.446;5.404;2023-05-18T13:03:19;102374.28;;;30.01;22.19
13050;BME280;6591;51.446;5.404;2023-05-18T13:06:06;102374.75;;;30.14;21.89
13050;BME280;6591;51.446;5.404;2023-05-18T13:08:35;102369.19;;;30.32;21.65
13050;BME280;6591;51.446;5.404;2023-05-18T13:11:07;102368.03;;;30.35;20.71
13050;BME280;6591;51.446;5.404;2023-05-18T13:14:02;102359.31;;;30.13;21.15
13050;BME280;6591;51.446;5.404;2023-05-18T13:16:33;102364.31;;;30.00;21.40
13050;BME280;6591;51.446;5.404;2023-05-18T13:19:04;102358.00;;;29.82;20.73
13050;BME280;6591;51.446;5.404;2023-05-18T13:21:33;102354.22;;;29.47;20.00
13050;BME280;6591;51.446;5.404;2023-05-18T13:24:03;102359.22;;;29.07;20.26
13050;BME280;6591;51.446;5.404;2023-05-18T13:26:30;102364.34;;;28.92;20.96
13050;BME280;6591;51.446;5.404;2023-05-18T13:28:57;102354.69;;;28.98;21.29
13050;BME280;6591;51.446;5.404;2023-05-18T13:31:26;102352.03;;;29.06;21.32
13050;BME280;6591;51.446;5.404;2023-05-18T13:33:55;102344.41;;;29.00;20.63
13050;BME280;6591;51.446;5.404;2023-05-18T13:36:22;102345.94;;;28.85;20.49
13050;BME280;6591;51.446;5.404;2023-05-18T13:38:50;102336.19;;;28.82;20.81
13050;BME280;6591;51.446;5.404;2023-05-18T13:41:18;102348.22;;;28.89;21.16